Date,TemperatureHighF,TemperatureAvgF,TemperatureLowF,DewpointHighF,DewpointAvgF,DewpointLowF,HumidityHigh,HumidityAvg,HumidityLow,PressureMaxIn,PressureMinIn,WindSpeedMaxMPH,WindSpeedAvgMPH,GustSpeedMaxMPH,PrecipitationSumIn
2013-1-1,15,3,-6,-4,-8,-12,78,62,33,0.00,40.00,7,4,18,0.01
2013-1-2,20,6,-3,-3,-6,-9,76,60,34,0.00,40.00,10,5,25,0.00
2013-1-3,28,5,-14,-2,-12,-21,75,50,15,0.00,40.00,7,2,15,0.00
2013-1-4,43,17,-1,4,-2,-10,71,46,19,0.00,40.00,8,3,16,0.00
2013-1-5,39,20,7,-2,-6,-10,52,34,15,0.00,40.00,12,5,24,0.00
2013-1-6,41,17,-2,0,-8,-16,52,35,14,0.00,40.00,5,2,9,0.00
2013-1-7,42,21,7,0,-6,-12,55,34,11,0.00,40.00,5,3,10,0.00
2013-1-8,35,23,12,13,3,-12,71,44,27,0.00,40.00,11,5,23,0.00
2013-1-9,44,23,9,10,4,1,73,49,17,0.00,40.00,6,3,11,0.00
2013-1-10,39,21,7,10,1,-5,70,46,15,0.00,40.00,8,3,18,0.00
2013-1-11,20,12,0,14,0,-16,89,61,25,0.00,40.00,10,6,21,0.00
2013-1-12,10,-3,-14,-10,-17,-25,71,55,19,0.00,40.00,6,3,13,0.00
2013-1-13,7,-7,-18,-8,-18,-26,74,61,25,0.00,40.00,7,2,13,0.00
2013-1-14,13,-6,-17,-11,-18,-25,70,57,26,0.00,40.00,7,3,15,0.00
2013-1-15,13,2,-14,4,-9,-23,74,61,44,0.00,40.00,8,4,17,0.00
2013-1-16,35,20,7,16,10,2,85,67,44,0.00,40.00,9,4,17,0.00
2013-1-17,44,22,7,15,6,2,88,57,17,0.00,40.00,4,2,9,0.00
2013-1-18,38,22,10,2,-2,-8,60,39,13,0.00,40.00,12,6,23,0.00
2013-1-19,43,26,13,-1,-4,-7,47,28,13,0.00,40.00,7,4,14,0.00
2013-1-20,39,26,16,-1,-6,-12,40,26,11,0.00,40.00,9,7,23,0.00
2013-1-21,38,23,11,3,-2,-7,46,33,20,0.00,40.00,11,7,28,0.00
2013-1-22,47,29,18,-6,-14,-20,30,16,5,0.00,40.00,9,5,23,0.00
2013-1-23,53,29,12,-3,-13,-24,27,16,6,0.00,40.00,4,2,12,0.00
2013-1-24,43,32,19,25,10,-9,77,43,16,0.00,40.00,12,6,25,0.00
2013-1-25,42,32,25,26,24,21,87,73,51,0.00,40.00,7,4,19,0.00
2013-1-26,38,28,20,30,23,17,98,82,45,0.00,40.00,10,4,17,0.00
2013-1-27,40,29,18,30,21,11,97,74,41,0.00,40.00,8,3,21,0.19
2013-1-28,30,21,15,23,16,9,90,82,65,0.00,40.00,7,3,15,0.02
2013-1-29,16,8,-1,10,-4,-12,82,58,32,0.00,40.00,9,6,23,0.01
2013-1-30,23,10,-4,10,0,-11,79,64,47,0.00,40.00,11,7,23,0.00
2013-1-31,34,22,12,12,8,5,81,55,30,0.00,40.00,9,5,22,0.05